Bayfield, Canada
Current Conditions -  °F | °C
As of 4:00 AM on Friday 24 Oct 2014 (Local Time) from CYXU Reporting Station
Clear Clear  
Wind Chill: 31°   Ceiling: Unl
Heat Index: 36°   Visibility: 8mi
Dew Point: 36°   Wind: 6mph
Humidity: 100%   Direction: 300°WNW
Pressure: 30.07"   Gusts: NA
Location:  43.56°N, 81.7°W
Report Text: CYXU 240800Z 30005KT 8SM R15/3500VP6000FT/U SKC 02/02 A3007 RMK SLP188
Loading
Personal Weather Stations






























Interactive Weather Map
Tropical Storm Tracking
New forecast layout! Learn more

10-Day Weather Forecast

Advertisements
Track Severe Weather on mobile